createdAt,value
2022-10-11T00:01:30.998Z,95.01
2022-10-11T00:03:57.881Z,94.84
2022-10-11T00:06:24.751Z,94.57
2022-10-11T00:08:51.530Z,94.87
2022-10-11T00:11:18.522Z,94.38
2022-10-11T00:13:45.363Z,93.04
2022-10-11T00:16:13.062Z,93.16
2022-10-11T00:18:40.006Z,92.42
2022-10-11T00:21:12.967Z,92.52
2022-10-11T00:23:40.425Z,92.86
2022-10-11T00:26:09.492Z,91.34
2022-10-11T00:28:37.310Z,90.89
2022-10-11T00:31:08.070Z,90.97
2022-10-11T00:33:35.289Z,91.42
2022-10-11T00:36:02.904Z,91.08
2022-10-11T00:38:31.857Z,91.33
2022-10-11T00:40:59.667Z,91.54
2022-10-11T00:43:28.767Z,89.05
2022-10-11T00:46:06.139Z,87.14
2022-10-11T00:48:57.540Z,85.65
2022-10-11T00:51:48.694Z,84.91
2022-10-11T00:54:17.795Z,83.81
2022-10-11T00:56:49.434Z,84.05
2022-10-11T00:59:22.895Z,83.02
2022-10-11T01:01:49.984Z,83.75
2022-10-11T01:04:16.863Z,83.94
2022-10-11T01:06:44.124Z,83.42
2022-10-11T01:09:11.253Z,83.65
2022-10-11T01:11:39.824Z,83.33
2022-10-11T01:14:46.133Z,84.89
2022-10-11T01:17:22.223Z,84.53
2022-10-11T01:20:37.293Z,84.36
2022-10-11T01:23:44.034Z,85.59
2022-10-11T01:26:58.398Z,85.05
2022-10-11T01:30:10.059Z,85.65
2022-10-11T01:32:54.546Z,86.15
2022-10-11T01:35:41.121Z,86.55
2022-10-11T01:38:48.517Z,86.85
2022-10-11T01:41:23.099Z,85.71
2022-10-11T01:43:51.259Z,86.33
2022-10-11T01:46:19.605Z,86.43
2022-10-11T01:48:54.422Z,86.83
2022-10-11T01:51:23.934Z,87.21
2022-10-11T01:54:10.201Z,87.60
2022-10-11T01:57:28.290Z,87.83
2022-10-11T02:00:16.671Z,88.68
2022-10-11T02:03:32.102Z,88.78
2022-10-11T02:06:09.167Z,88.82
2022-10-11T02:09:04.484Z,89.64
2022-10-11T02:11:35.477Z,89.06
2022-10-11T02:14:32.508Z,88.75
2022-10-11T02:17:04.765Z,88.50
2022-10-11T02:19:36.216Z,88.77
2022-10-11T02:22:06.599Z,88.72
2022-10-11T02:24:35.729Z,88.90
2022-10-11T02:27:04.560Z,90.23
2022-10-11T02:29:34.851Z,90.37
2022-10-11T02:32:03.082Z,90.61
2022-10-11T02:34:48.693Z,91.16
2022-10-11T02:37:41.352Z,90.62
2022-10-11T02:40:21.312Z,91.64
2022-10-11T02:42:59.840Z,91.38
2022-10-11T02:45:31.865Z,92.25
2022-10-11T02:47:59.068Z,92.01
2022-10-11T02:50:27.229Z,92.17
2022-10-11T02:52:54.007Z,92.23
2022-10-11T02:55:20.933Z,93.23
2022-10-11T02:57:47.841Z,92.50
2022-10-11T03:00:15.475Z,92.47
2022-10-11T03:02:42.377Z,92.09
2022-10-11T03:05:09.348Z,92.20
2022-10-11T03:07:36.314Z,93.16
2022-10-11T03:10:04.571Z,94.37
2022-10-11T03:12:31.661Z,94.96
2022-10-11T03:14:58.764Z,94.75
2022-10-11T03:17:38.207Z,94.30
2022-10-11T03:20:06.137Z,94.39
2022-10-11T03:22:33.054Z,94.38
2022-10-11T03:25:04.076Z,95.22
2022-10-11T03:27:32.653Z,95.13
2022-10-11T03:29:59.630Z,95.60
2022-10-11T03:32:26.613Z,95.75
2022-10-11T03:34:53.424Z,96.40
2022-10-11T03:37:20.443Z,95.50
2022-10-11T03:39:47.214Z,95.63
2022-10-11T03:42:14.477Z,95.93
2022-10-11T03:44:42.427Z,96.29
2022-10-11T03:47:09.342Z,96.05
2022-10-11T03:49:41.201Z,95.51
2022-10-11T03:52:10.487Z,96.67
2022-10-11T03:54:37.307Z,96.10
2022-10-11T03:57:04.224Z,96.30
2022-10-11T03:59:31.526Z,96.30
2022-10-11T04:01:58.440Z,96.51
2022-10-11T04:04:25.205Z,97.45
2022-10-11T04:06:52.087Z,97.16
2022-10-11T04:09:18.888Z,97.20
2022-10-11T04:11:45.839Z,96.51
2022-10-11T04:14:12.684Z,96.42
2022-10-11T04:16:40.351Z,97.50
2022-10-11T04:19:07.625Z,97.40
2022-10-11T04:21:34.562Z,97.69
2022-10-11T04:24:01.318Z,97.59
2022-10-11T04:26:28.114Z,97.69
2022-10-11T04:28:55.059Z,97.22
2022-10-11T04:31:21.932Z,97.32
2022-10-11T04:33:48.706Z,96.30
2022-10-11T04:36:15.758Z,95.67
2022-10-11T04:38:42.836Z,95.62
2022-10-11T04:41:11.596Z,96.47
2022-10-11T04:43:38.588Z,96.99
2022-10-11T04:46:06.258Z,96.63
2022-10-11T04:48:33.763Z,97.70
2022-10-11T04:51:00.928Z,97.41
2022-10-11T04:53:27.756Z,97.33
2022-10-11T04:56:01.642Z,97.71
2022-10-11T04:58:29.862Z,97.62
2022-10-11T05:00:57.459Z,98.47
2022-10-11T05:03:25.330Z,98.61
2022-10-11T05:05:53.115Z,97.35
2022-10-11T05:08:20.323Z,97.49
2022-10-11T05:11:01.953Z,96.58
2022-10-11T05:13:29.551Z,96.93
2022-10-11T05:15:56.571Z,96.97
2022-10-11T05:18:24.015Z,97.16
2022-10-11T05:21:02.180Z,96.75
2022-10-11T05:23:29.866Z,96.61
2022-10-11T05:25:56.830Z,96.42
2022-10-11T05:28:23.692Z,97.09
2022-10-11T05:30:50.668Z,97.21
2022-10-11T05:33:17.408Z,97.80
2022-10-11T05:35:44.661Z,98.10
2022-10-11T05:38:11.529Z,97.71
2022-10-11T05:40:39.381Z,97.84
2022-10-11T05:43:06.558Z,99.46
2022-10-11T05:45:40.398Z,99.26
2022-10-11T05:48:08.072Z,98.43
2022-10-11T05:50:35.765Z,98.21
2022-10-11T05:53:02.628Z,97.81
2022-10-11T05:55:29.378Z,97.89
2022-10-11T05:57:57.369Z,97.68
2022-10-11T06:00:24.610Z,98.40
2022-10-11T06:02:51.272Z,98.93
2022-10-11T06:05:18.464Z,98.82
2022-10-11T06:07:45.246Z,98.70
2022-10-11T06:10:12.508Z,98.35
2022-10-11T06:12:39.523Z,98.47
2022-10-11T06:15:07.669Z,99.52
2022-10-11T06:17:34.873Z,100.00
2022-10-11T06:20:02.080Z,99.72
2022-10-11T06:22:28.932Z,100.00
2022-10-11T06:24:55.760Z,100.00
2022-10-11T06:27:22.491Z,100.00
2022-10-11T06:29:49.429Z,99.83
2022-10-11T06:32:16.392Z,99.67
2022-10-11T06:34:43.202Z,99.44
2022-10-11T06:37:10.065Z,99.56
2022-10-11T06:39:36.876Z,99.78
2022-10-11T06:42:03.803Z,100.00
2022-10-11T06:44:30.792Z,100.00
2022-10-11T06:46:57.526Z,100.00
2022-10-11T06:49:24.542Z,99.39
2022-10-11T06:51:51.455Z,98.85
2022-10-11T06:54:18.347Z,99.16
2022-10-11T06:56:45.917Z,100.00
2022-10-11T06:59:13.608Z,99.52
2022-10-11T07:01:40.672Z,99.65
2022-10-11T07:04:08.342Z,99.89
2022-10-11T07:06:40.152Z,99.97
2022-10-11T07:09:07.659Z,99.01
2022-10-11T07:11:34.471Z,97.36
2022-10-11T07:14:07.994Z,96.56
2022-10-11T07:16:36.653Z,96.59
2022-10-11T07:19:05.015Z,96.59
2022-10-11T07:21:32.929Z,97.32
2022-10-11T07:24:00.345Z,97.51
2022-10-11T07:26:28.207Z,97.82
2022-10-11T07:28:55.165Z,98.76
2022-10-11T07:31:25.132Z,98.49
2022-10-11T07:33:52.354Z,98.90
2022-10-11T07:36:19.362Z,99.45
2022-10-11T07:38:47.168Z,99.38
2022-10-11T07:41:14.271Z,98.27
2022-10-11T07:43:43.500Z,97.59
2022-10-11T07:46:11.453Z,98.76
2022-10-11T07:48:38.779Z,98.24
2022-10-11T07:51:14.131Z,98.36
2022-10-11T07:53:46.506Z,98.15
2022-10-11T07:56:16.140Z,97.69
2022-10-11T07:58:43.261Z,96.34
2022-10-11T08:01:11.555Z,94.60
2022-10-11T08:03:38.851Z,94.65
2022-10-11T08:06:08.508Z,95.19
2022-10-11T08:08:36.654Z,95.07
2022-10-11T08:11:03.785Z,93.72
2022-10-11T08:13:30.622Z,93.89
2022-10-11T08:15:57.978Z,93.66
2022-10-11T08:18:24.976Z,93.72
2022-10-11T08:20:52.102Z,94.54
2022-10-11T08:23:19.894Z,93.48
2022-10-11T08:25:47.819Z,93.85
2022-10-11T08:28:18.136Z,91.96
2022-10-11T08:30:53.269Z,93.88
2022-10-11T08:33:21.850Z,92.69
2022-10-11T08:35:49.552Z,92.10
2022-10-11T08:38:17.087Z,92.19
2022-10-11T08:40:52.851Z,92.26
2022-10-11T08:43:32.496Z,91.50
2022-10-11T08:46:01.395Z,90.22
2022-10-11T08:48:39.118Z,89.46
2022-10-11T08:51:14.075Z,90.76
2022-10-11T08:53:53.147Z,89.80
2022-10-11T08:56:20.972Z,88.16
2022-10-11T08:58:55.883Z,87.85
2022-10-11T09:01:25.892Z,87.58
2022-10-11T09:03:53.153Z,86.67
2022-10-11T09:07:02.617Z,86.19
2022-10-11T09:10:01.330Z,85.15
2022-10-11T09:12:40.964Z,85.24
2022-10-11T09:15:29.308Z,85.96
2022-10-11T09:18:31.476Z,84.65
2022-10-11T09:21:23.476Z,83.15
2022-10-11T09:24:08.667Z,81.37
2022-10-11T09:26:40.526Z,81.80
2022-10-11T09:29:56.732Z,81.51
2022-10-11T09:32:27.692Z,79.63
2022-10-11T09:35:09.428Z,79.87
2022-10-11T09:37:43.013Z,77.16
2022-10-11T09:40:22.769Z,80.23
2022-10-11T09:42:49.550Z,78.27
2022-10-11T09:45:21.265Z,77.39
2022-10-11T09:47:50.051Z,76.12
2022-10-11T09:50:20.267Z,75.54
2022-10-11T09:52:58.234Z,77.09
2022-10-11T09:55:40.954Z,76.55
2022-10-11T09:58:27.161Z,74.42
2022-10-11T10:01:08.001Z,71.18
2022-10-11T10:03:40.693Z,73.48
2022-10-11T10:06:23.424Z,75.26
2022-10-11T10:08:50.903Z,72.88
2022-10-11T10:11:18.937Z,71.81
2022-10-11T10:13:50.086Z,69.92
2022-10-11T10:16:31.787Z,67.74
2022-10-11T10:18:58.786Z,69.71
2022-10-11T10:21:37.286Z,70.04
2022-10-11T10:24:20.149Z,68.27
2022-10-11T10:27:21.192Z,67.21
2022-10-11T10:30:17.077Z,68.04
2022-10-11T10:32:57.367Z,63.75
2022-10-11T10:36:10.681Z,66.12
2022-10-11T10:38:52.325Z,64.64
2022-10-11T10:41:19.375Z,64.21
2022-10-11T10:43:53.760Z,63.87
2022-10-11T10:46:58.354Z,61.37
2022-10-11T10:50:06.650Z,64.26
2022-10-11T10:53:21.852Z,62.50
2022-10-11T10:55:54.191Z,64.78
2022-10-11T10:58:42.412Z,64.26
2022-10-11T11:01:14.851Z,63.91
2022-10-11T11:04:21.840Z,64.74
2022-10-11T11:06:58.078Z,66.33
2022-10-11T11:09:40.663Z,66.29
2022-10-11T11:12:32.166Z,66.65
2022-10-11T11:15:24.718Z,66.11
2022-10-11T11:18:38.068Z,65.18
2022-10-11T11:24:47.906Z,64.94
2022-10-11T11:27:44.695Z,63.96
2022-10-11T11:30:53.327Z,62.84
2022-10-11T11:33:58.597Z,64.11
2022-10-11T11:37:02.715Z,62.51
2022-10-11T11:39:54.735Z,59.50
2022-10-11T11:42:36.430Z,60.73
2022-10-11T11:45:12.584Z,61.04
2022-10-11T11:47:42.441Z,61.52
2022-10-11T11:50:25.356Z,62.63
2022-10-11T11:52:55.133Z,61.94
2022-10-11T11:55:32.519Z,60.91
2022-10-11T11:58:11.425Z,60.44
2022-10-11T12:00:55.381Z,59.74
2022-10-11T12:03:27.322Z,59.49
2022-10-11T12:06:33.125Z,58.34
2022-10-11T12:09:09.973Z,56.72
2022-10-11T12:11:51.727Z,57.42
2022-10-11T12:14:40.203Z,55.95
2022-10-11T12:17:22.545Z,57.61
2022-10-11T12:20:12.970Z,55.04
2022-10-11T12:23:01.098Z,56.25
2022-10-11T12:25:41.148Z,56.56
2022-10-11T12:28:37.602Z,56.00
2022-10-11T12:31:07.902Z,54.11
2022-10-11T12:33:55.251Z,54.29
2022-10-11T12:36:43.706Z,54.91
2022-10-11T12:39:43.743Z,55.68
2022-10-11T12:42:32.684Z,55.99
2022-10-11T12:45:14.577Z,57.50
2022-10-11T12:48:22.012Z,57.21
2022-10-11T12:51:32.940Z,56.58
2022-10-11T12:54:37.640Z,57.22
2022-10-11T12:57:25.877Z,56.57
2022-10-11T12:59:53.121Z,57.09
2022-10-11T13:02:43.110Z,54.94
2022-10-11T13:05:45.251Z,55.56
2022-10-11T13:08:26.591Z,56.59
2022-10-11T13:10:54.068Z,57.02
2022-10-11T13:13:30.115Z,56.92
2022-10-11T13:15:58.293Z,57.11
2022-10-11T13:18:26.537Z,56.48
2022-10-11T13:20:53.582Z,57.20
2022-10-11T13:23:36.330Z,55.32
2022-10-11T13:26:03.639Z,55.24
2022-10-11T13:28:35.576Z,53.69
2022-10-11T13:31:05.041Z,56.18
2022-10-11T13:33:35.284Z,55.75
2022-10-11T13:36:05.009Z,56.55
2022-10-11T13:38:37.052Z,55.65
2022-10-11T13:41:06.721Z,56.30
2022-10-11T13:43:34.893Z,55.10
2022-10-11T13:46:05.485Z,55.61
2022-10-11T13:48:34.849Z,55.28
2022-10-11T13:51:09.641Z,55.24
2022-10-11T13:53:37.597Z,55.55
2022-10-11T13:56:08.238Z,55.58
2022-10-11T13:58:40.792Z,56.07
2022-10-11T14:01:40.762Z,55.59
2022-10-11T14:04:10.395Z,53.40
2022-10-11T14:06:49.153Z,54.88
2022-10-11T14:09:37.399Z,55.89
2022-10-11T14:12:40.465Z,54.51
2022-10-11T14:15:24.732Z,53.68
2022-10-11T14:17:52.250Z,53.27
2022-10-11T14:20:27.287Z,53.91
2022-10-11T14:22:56.494Z,54.60
2022-10-11T14:25:23.264Z,54.72
2022-10-11T14:27:51.228Z,55.59
2022-10-11T14:30:27.412Z,56.30
2022-10-11T14:32:57.307Z,57.47
2022-10-11T14:35:28.874Z,56.67
2022-10-11T14:37:55.789Z,57.92
2022-10-11T14:40:26.278Z,58.54
2022-10-11T14:42:53.330Z,59.38
2022-10-11T14:45:21.551Z,59.49
2022-10-11T14:47:49.188Z,59.51
2022-10-11T14:50:35.714Z,59.31
2022-10-11T14:53:04.276Z,59.33
2022-10-11T14:55:31.619Z,59.83
2022-10-11T14:57:59.107Z,58.55
2022-10-11T15:00:28.606Z,57.27
2022-10-11T15:02:55.849Z,58.53
2022-10-11T15:05:28.685Z,58.19
2022-10-11T15:07:58.331Z,58.11
2022-10-11T15:10:30.592Z,57.87
2022-10-11T15:12:58.272Z,58.15
2022-10-11T15:15:26.832Z,58.46
2022-10-11T15:17:56.024Z,58.51
2022-10-11T15:20:35.547Z,59.59
2022-10-11T15:23:03.900Z,58.98
2022-10-11T15:25:31.189Z,59.76
2022-10-11T15:27:58.099Z,60.24
2022-10-11T15:30:30.247Z,60.14
2022-10-11T15:32:57.082Z,59.49
2022-10-11T15:35:26.074Z,58.73
2022-10-11T15:37:55.784Z,59.74
2022-10-11T15:40:26.915Z,60.24
2022-10-11T15:42:54.940Z,60.03
2022-10-11T15:45:23.400Z,59.36
2022-10-11T15:47:50.634Z,58.79
2022-10-11T15:50:37.888Z,58.99
2022-10-11T15:53:28.627Z,59.00
2022-10-11T15:55:57.682Z,59.07
2022-10-11T15:58:36.038Z,59.30
2022-10-11T16:01:09.093Z,60.66
2022-10-11T16:03:36.149Z,62.02
2022-10-11T16:06:05.540Z,61.92
2022-10-11T16:08:34.013Z,63.34
2022-10-11T16:11:01.960Z,65.17
2022-10-11T16:13:28.743Z,64.75
2022-10-11T16:15:55.962Z,65.21
2022-10-11T16:18:24.103Z,66.18
2022-10-11T16:20:52.070Z,67.27
2022-10-11T16:23:21.371Z,67.68
2022-10-11T16:25:59.758Z,68.33
2022-10-11T16:28:27.815Z,68.61
2022-10-11T16:30:55.578Z,68.96
2022-10-11T16:33:23.347Z,69.49
2022-10-11T16:35:51.363Z,70.55
2022-10-11T16:38:18.352Z,71.58
2022-10-11T16:40:45.017Z,72.92
2022-10-11T16:43:11.908Z,73.24
2022-10-11T16:45:39.284Z,72.10
2022-10-11T16:48:06.722Z,71.86
2022-10-11T16:50:39.063Z,72.62
2022-10-11T16:53:06.772Z,74.08
2022-10-11T16:55:33.504Z,75.68
2022-10-11T16:58:00.605Z,75.91
2022-10-11T17:00:27.552Z,77.81
2022-10-11T17:02:54.963Z,77.79
2022-10-11T17:05:23.224Z,77.89
2022-10-11T17:07:50.094Z,78.10
2022-10-11T17:10:18.083Z,76.99
2022-10-11T17:12:49.902Z,77.53
2022-10-11T17:15:17.081Z,77.61
2022-10-11T17:17:44.794Z,78.46
2022-10-11T17:20:11.663Z,78.70
2022-10-11T17:22:38.709Z,78.47
2022-10-11T17:25:06.094Z,78.16
2022-10-11T17:27:33.980Z,79.12
2022-10-11T17:30:03.069Z,79.51
2022-10-11T17:32:30.606Z,80.19
2022-10-11T17:34:59.546Z,80.12
2022-10-11T17:37:28.259Z,79.37
2022-10-11T17:39:56.075Z,80.40
2022-10-11T17:42:23.061Z,82.29
2022-10-11T17:44:50.619Z,81.80
2022-10-11T17:47:17.796Z,82.85
2022-10-11T17:49:44.613Z,82.56
2022-10-11T17:52:11.538Z,82.17
2022-10-11T17:54:39.226Z,83.00
2022-10-11T17:57:06.160Z,83.45
2022-10-11T17:59:33.226Z,84.00
2022-10-11T18:02:00.188Z,83.45
2022-10-11T18:04:30.202Z,83.53
2022-10-11T18:06:57.089Z,84.25
2022-10-11T18:09:24.872Z,84.99
2022-10-11T18:11:51.981Z,85.43
2022-10-11T18:14:19.171Z,86.06
2022-10-11T18:16:46.113Z,84.81
2022-10-11T18:19:13.841Z,85.40
2022-10-11T18:21:41.451Z,86.28
2022-10-11T18:24:15.194Z,86.67
2022-10-11T18:26:43.348Z,87.43
2022-10-11T18:29:11.444Z,87.02
2022-10-11T18:31:38.544Z,86.74
2022-10-11T18:34:08.608Z,87.64
2022-10-11T18:36:35.757Z,88.98
2022-10-11T18:39:05.546Z,89.00
2022-10-11T18:41:33.449Z,89.14
2022-10-11T18:44:02.236Z,88.45
2022-10-11T18:46:30.448Z,89.25
2022-10-11T18:48:58.874Z,89.33
2022-10-11T18:51:32.144Z,89.85
2022-10-11T18:53:59.413Z,89.87
2022-10-11T18:56:27.689Z,90.53
2022-10-11T18:58:57.001Z,91.18
2022-10-11T19:01:29.399Z,91.60
2022-10-11T19:03:57.895Z,91.02
2022-10-11T19:06:49.115Z,91.53
2022-10-11T19:09:24.699Z,92.20
2022-10-11T19:11:53.656Z,90.46
2022-10-11T19:14:23.254Z,90.49
2022-10-11T19:16:51.784Z,90.04
2022-10-11T19:19:21.025Z,89.78
2022-10-11T19:21:49.181Z,89.90
2022-10-11T19:24:18.168Z,89.98
2022-10-11T19:26:45.211Z,90.67
2022-10-11T19:29:20.802Z,91.36
2022-10-11T19:31:50.745Z,92.01
2022-10-11T19:34:18.735Z,91.05
2022-10-11T19:36:45.591Z,90.88
2022-10-11T19:39:14.285Z,91.35
2022-10-11T19:41:41.843Z,91.71
2022-10-11T19:44:09.547Z,91.28
2022-10-11T19:46:52.956Z,90.58
2022-10-11T19:49:25.430Z,90.91
2022-10-11T19:51:56.020Z,91.21
2022-10-11T19:54:23.404Z,90.99
2022-10-11T19:56:50.303Z,91.42
2022-10-11T19:59:17.323Z,92.22
2022-10-11T20:01:49.405Z,92.55
2022-10-11T20:04:47.194Z,91.67
2022-10-11T20:07:05.805Z,92.72
2022-10-11T20:09:32.545Z,92.67
2022-10-11T20:12:00.242Z,92.61
2022-10-11T20:14:27.146Z,92.83
2022-10-11T20:16:54.155Z,93.10
2022-10-11T20:19:25.006Z,93.22
2022-10-11T20:21:53.647Z,93.19
2022-10-11T20:24:20.732Z,92.28
2022-10-11T20:26:48.403Z,92.96
2022-10-11T20:29:15.228Z,93.84
2022-10-11T20:31:43.031Z,93.71
2022-10-11T20:34:09.947Z,93.81
2022-10-11T20:36:36.884Z,93.94
2022-10-11T20:39:05.072Z,94.13
2022-10-11T20:41:34.973Z,93.25
2022-10-11T20:44:03.033Z,93.48
2022-10-11T20:46:31.708Z,93.97
2022-10-11T20:49:04.356Z,93.78
2022-10-11T20:51:33.161Z,93.31
2022-10-11T20:54:01.113Z,93.50
2022-10-11T20:56:29.984Z,93.68
2022-10-11T20:58:58.054Z,93.54
2022-10-11T21:01:45.171Z,94.68
2022-10-11T21:04:18.767Z,94.50
2022-10-11T21:06:45.989Z,95.17
2022-10-11T21:09:15.587Z,94.94
2022-10-11T21:11:43.718Z,96.37
2022-10-11T21:14:10.551Z,96.13
2022-10-11T21:16:39.064Z,96.18
2022-10-11T21:19:06.722Z,95.32
2022-10-11T21:21:33.502Z,94.36
2022-10-11T21:24:02.081Z,94.28
2022-10-11T21:26:30.665Z,94.72
2022-10-11T21:28:59.783Z,95.89
2022-10-11T21:31:29.733Z,95.65
2022-10-11T21:34:00.310Z,94.57
2022-10-11T21:36:27.113Z,95.24
2022-10-11T21:38:54.341Z,94.75
2022-10-11T21:41:23.807Z,94.44
2022-10-11T21:43:50.674Z,94.64
2022-10-11T21:46:22.917Z,94.63
2022-10-11T21:48:51.322Z,95.30
2022-10-11T21:51:23.213Z,95.84
2022-10-11T21:53:50.071Z,95.70
2022-10-11T21:56:17.005Z,95.73
2022-10-11T21:58:47.225Z,95.79
2022-10-11T22:01:14.918Z,94.96
2022-10-11T22:03:42.089Z,95.28
2022-10-11T22:06:09.151Z,95.36
2022-10-11T22:08:36.563Z,94.56
2022-10-11T22:11:03.528Z,94.47
2022-10-11T22:13:31.569Z,94.83
2022-10-11T22:16:08.712Z,94.05
2022-10-11T22:18:35.539Z,95.19
2022-10-11T22:21:08.343Z,94.74
2022-10-11T22:23:35.762Z,95.86
2022-10-11T22:26:08.001Z,95.38
2022-10-11T22:28:35.293Z,95.49
2022-10-11T22:31:02.217Z,95.79
2022-10-11T22:33:28.980Z,95.61
2022-10-11T22:35:57.684Z,95.18
2022-10-11T22:38:25.259Z,95.35
2022-10-11T22:40:52.588Z,95.67
2022-10-11T22:43:20.105Z,95.78
2022-10-11T22:45:47.132Z,96.10
2022-10-11T22:48:14.492Z,95.63
2022-10-11T22:50:41.644Z,95.90
2022-10-11T22:53:09.151Z,96.12
2022-10-11T22:55:36.019Z,95.68
2022-10-11T22:58:05.324Z,95.86
2022-10-11T23:00:34.756Z,96.39
2022-10-11T23:03:02.415Z,96.60
2022-10-11T23:05:29.467Z,96.28
2022-10-11T23:07:56.219Z,95.70
2022-10-11T23:10:23.007Z,96.41
2022-10-11T23:12:50.298Z,96.14
2022-10-11T23:15:17.159Z,95.08
2022-10-11T23:17:44.641Z,95.10
2022-10-11T23:20:11.991Z,94.87
2022-10-11T23:22:38.968Z,95.49
2022-10-11T23:25:07.099Z,96.67
2022-10-11T23:27:33.892Z,97.07
2022-10-11T23:30:00.820Z,96.42
2022-10-11T23:32:27.505Z,96.30
2022-10-11T23:34:54.346Z,95.47
2022-10-11T23:37:21.285Z,95.56
2022-10-11T23:39:48.498Z,96.82
2022-10-11T23:42:15.181Z,97.17
2022-10-11T23:44:42.082Z,96.46
2022-10-11T23:47:09.020Z,96.65
2022-10-11T23:49:36.238Z,96.63
2022-10-11T23:52:02.952Z,96.24
2022-10-11T23:54:29.760Z,97.19
2022-10-11T23:56:57.385Z,96.51
2022-10-11T23:59:24.214Z,96.34
